sensor_id;sensor_type;location;lat;lon;timestamp;pressure;altitude;pressure_sealevel;temperature;humidity
82413;BME280;72056;51.980;15.436;2023-11-19T00:01:35;101018.34;;;3.52;100.00
82413;BME280;72056;51.980;15.436;2023-11-19T00:04:05;101022.34;;;3.61;100.00
82413;BME280;72056;51.980;15.436;2023-11-19T00:06:39;101019.63;;;3.61;100.00
82413;BME280;72056;51.980;15.436;2023-11-19T00:09:10;101014.06;;;3.64;100.00
82413;BME280;72056;51.980;15.436;2023-11-19T00:11:39;101006.69;;;3.52;100.00
82413;BME280;72056;51.980;15.436;2023-11-19T00:14:10;101000.28;;;3.54;100.00
82413;BME280;72056;51.980;15.436;2023-11-19T00:16:37;100989.09;;;3.62;100.00
82413;BME280;72056;51.980;15.436;2023-11-19T00:19:09;100975.28;;;3.52;100.00
82413;BME280;72056;51.980;15.436;2023-11-19T00:21:35;100974.03;;;3.58;100.00
82413;BME280;72056;51.980;15.436;2023-11-19T00:24:02;100984.94;;;3.56;100.00
82413;BME280;72056;51.980;15.436;2023-11-19T00:26:30;100973.22;;;3.42;100.00
82413;BME280;72056;51.980;15.436;2023-11-19T00:28:57;100963.53;;;3.39;100.00
82413;BME280;72056;51.980;15.436;2023-11-19T00:31:25;100950.09;;;3.53;100.00
82413;BME280;72056;51.980;15.436;2023-11-19T00:33:54;100953.16;;;3.47;100.00
82413;BME280;72056;51.980;15.436;2023-11-19T00:36:26;100941.94;;;3.55;100.00
82413;BME280;72056;51.980;15.436;2023-11-19T00:38:52;100940.13;;;3.55;100.00
82413;BME280;72056;51.980;15.436;2023-11-19T00:41:19;100936.97;;;3.63;100.00
82413;BME280;72056;51.980;15.436;2023-11-19T00:43:46;100925.34;;;3.62;100.00
82413;BME280;72056;51.980;15.436;2023-11-19T00:46:12;100917.44;;;3.59;100.00
82413;BME280;72056;51.980;15.436;2023-11-19T00:48:42;100914.09;;;3.70;100.00
82413;BME280;72056;51.980;15.436;2023-11-19T00:51:11;100900.72;;;3.54;100.00
82413;BME280;72056;51.980;15.436;2023-11-19T00:53:38;100885.84;;;3.63;100.00
82413;BME280;72056;51.980;15.436;2023-11-19T00:56:06;100885.63;;;3.66;100.00
82413;BME280;72056;51.980;15.436;2023-11-19T00:58:33;100872.19;;;3.66;100.00
82413;BME280;72056;51.980;15.436;2023-11-19T01:01:00;100868.25;;;3.72;100.00
82413;BME280;72056;51.980;15.436;2023-11-19T01:03:27;100868.41;;;3.54;100.00
82413;BME280;72056;51.980;15.436;2023-11-19T01:05:54;100866.38;;;3.44;100.00
82413;BME280;72056;51.980;15.436;2023-11-19T01:08:21;100869.56;;;3.50;100.00
82413;BME280;72056;51.980;15.436;2023-11-19T01:10:51;100868.00;;;3.46;100.00
82413;BME280;72056;51.980;15.436;2023-11-19T01:13:22;100873.50;;;3.45;100.00
82413;BME280;72056;51.980;15.436;2023-11-19T01:15:49;100868.31;;;3.70;100.00
82413;BME280;72056;51.980;15.436;2023-11-19T01:18:20;100862.56;;;3.62;100.00
82413;BME280;72056;51.980;15.436;2023-11-19T01:20:47;100863.97;;;3.53;100.00
82413;BME280;72056;51.980;15.436;2023-11-19T01:23:14;100856.59;;;3.71;100.00
82413;BME280;72056;51.980;15.436;2023-11-19T01:25:40;100851.81;;;3.62;100.00
82413;BME280;72056;51.980;15.436;2023-11-19T01:28:10;100848.59;;;3.69;100.00
82413;BME280;72056;51.980;15.436;2023-11-19T01:30:41;100849.19;;;3.60;100.00
82413;BME280;72056;51.980;15.436;2023-11-19T01:33:12;100835.53;;;3.63;100.00
82413;BME280;72056;51.980;15.436;2023-11-19T01:35:39;100809.47;;;3.64;100.00
82413;BME280;72056;51.980;15.436;2023-11-19T01:38:06;100818.63;;;3.61;100.00
82413;BME280;72056;51.980;15.436;2023-11-19T01:40:36;100816.50;;;3.66;100.00
82413;BME280;72056;51.980;15.436;2023-11-19T01:43:03;100808.16;;;3.71;100.00
82413;BME280;72056;51.980;15.436;2023-11-19T01:45:31;100800.16;;;3.69;100.00
82413;BME280;72056;51.980;15.436;2023-11-19T01:48:00;100807.00;;;3.61;100.00
82413;BME280;72056;51.980;15.436;2023-11-19T01:50:31;100807.66;;;3.64;100.00
82413;BME280;72056;51.980;15.436;2023-11-19T01:52:57;100796.88;;;3.64;100.00
82413;BME280;72056;51.980;15.436;2023-11-19T01:55:27;100792.00;;;3.71;100.00
82413;BME280;72056;51.980;15.436;2023-11-19T01:57:54;100782.97;;;3.72;100.00
82413;BME280;72056;51.980;15.436;2023-11-19T02:00:28;100758.28;;;3.51;100.00
82413;BME280;72056;51.980;15.436;2023-11-19T02:02:55;100764.59;;;3.50;100.00
82413;BME280;72056;51.980;15.436;2023-11-19T02:05:23;100772.47;;;3.53;100.00
82413;BME280;72056;51.980;15.436;2023-11-19T02:07:50;100767.09;;;3.39;100.00
82413;BME280;72056;51.980;15.436;2023-11-19T02:10:17;100748.44;;;3.64;100.00
82413;BME280;72056;51.980;15.436;2023-11-19T02:12:45;100744.44;;;3.57;100.00
82413;BME280;72056;51.980;15.436;2023-11-19T02:15:14;100733.06;;;3.66;100.00
82413;BME280;72056;51.980;15.436;2023-11-19T02:17:46;100713.28;;;3.53;100.00
82413;BME280;72056;51.980;15.436;2023-11-19T02:20:13;100706.38;;;3.49;100.00
82413;BME280;72056;51.980;15.436;2023-11-19T02:22:44;100699.63;;;3.56;100.00
82413;BME280;72056;51.980;15.436;2023-11-19T02:25:20;100691.94;;;3.50;100.00
82413;BME280;72056;51.980;15.436;2023-11-19T02:27:53;100680.22;;;3.51;100.00
82413;BME280;72056;51.980;15.436;2023-11-19T02:30:24;100674.72;;;3.53;100.00
82413;BME280;72056;51.980;15.436;2023-11-19T02:33:01;100672.03;;;3.53;100.00
82413;BME280;72056;51.980;15.436;2023-11-19T02:35:32;100670.81;;;3.44;100.00
82413;BME280;72056;51.980;15.436;2023-11-19T02:37:59;100673.28;;;3.61;100.00
82413;BME280;72056;51.980;15.436;2023-11-19T02:40:34;100672.97;;;3.66;100.00
82413;BME280;72056;51.980;15.436;2023-11-19T02:43:01;100671.81;;;3.70;100.00
82413;BME280;72056;51.980;15.436;2023-11-19T02:45:31;100678.28;;;3.67;100.00
82413;BME280;72056;51.980;15.436;2023-11-19T02:48:02;100677.41;;;3.67;100.00
82413;BME280;72056;51.980;15.436;2023-11-19T02:50:29;100665.56;;;3.69;100.00
82413;BME280;72056;51.980;15.436;2023-11-19T02:52:55;100645.19;;;3.65;100.00
82413;BME280;72056;51.980;15.436;2023-11-19T02:55:23;100637.50;;;3.59;100.00
82413;BME280;72056;51.980;15.436;2023-11-19T02:57:51;100633.31;;;3.55;100.00
82413;BME280;72056;51.980;15.436;2023-11-19T03:00:21;100620.25;;;3.49;100.00
82413;BME280;72056;51.980;15.436;2023-11-19T03:02:58;100630.63;;;3.55;100.00
82413;BME280;72056;51.980;15.436;2023-11-19T03:05:27;100639.66;;;3.54;100.00
82413;BME280;72056;51.980;15.436;2023-11-19T03:07:56;100617.50;;;3.63;100.00
82413;BME280;72056;51.980;15.436;2023-11-19T03:10:24;100613.34;;;3.45;100.00
82413;BME280;72056;51.980;15.436;2023-11-19T03:12:51;100598.31;;;3.55;100.00
82413;BME280;72056;51.980;15.436;2023-11-19T03:15:19;100586.22;;;3.48;100.00
82413;BME280;72056;51.980;15.436;2023-11-19T03:17:47;100566.28;;;3.65;100.00
82413;BME280;72056;51.980;15.436;2023-11-19T03:20:14;100565.41;;;3.64;100.00
82413;BME280;72056;51.980;15.436;2023-11-19T03:22:43;100567.91;;;3.67;100.00
82413;BME280;72056;51.980;15.436;2023-11-19T03:25:11;100569.38;;;3.59;100.00
82413;BME280;72056;51.980;15.436;2023-11-19T03:27:42;100557.88;;;3.69;100.00
82413;BME280;72056;51.980;15.436;2023-11-19T03:30:13;100545.50;;;3.67;100.00
82413;BME280;72056;51.980;15.436;2023-11-19T03:32:46;100546.06;;;3.72;100.00
82413;BME280;72056;51.980;15.436;2023-11-19T03:35:13;100544.28;;;3.58;100.00
82413;BME280;72056;51.980;15.436;2023-11-19T03:37:45;100535.19;;;3.74;100.00
82413;BME280;72056;51.980;15.436;2023-11-19T03:40:16;100512.34;;;3.66;100.00
82413;BME280;72056;51.980;15.436;2023-11-19T03:42:42;100500.75;;;3.79;100.00
82413;BME280;72056;51.980;15.436;2023-11-19T03:45:10;100498.50;;;3.85;100.00
82413;BME280;72056;51.980;15.436;2023-11-19T03:47:37;100486.41;;;3.78;100.00
82413;BME280;72056;51.980;15.436;2023-11-19T03:50:04;100494.50;;;3.78;100.00
82413;BME280;72056;51.980;15.436;2023-11-19T03:52:31;100492.84;;;3.63;100.00
82413;BME280;72056;51.980;15.436;2023-11-19T03:54:58;100491.47;;;3.83;100.00
82413;BME280;72056;51.980;15.436;2023-11-19T03:57:26;100505.16;;;3.80;100.00
82413;BME280;72056;51.980;15.436;2023-11-19T03:59:53;100508.19;;;3.75;100.00
82413;BME280;72056;51.980;15.436;2023-11-19T04:02:24;100485.19;;;3.69;100.00
82413;BME280;72056;51.980;15.436;2023-11-19T04:04:57;100484.38;;;3.82;100.00
82413;BME280;72056;51.980;15.436;2023-11-19T04:07:27;100492.25;;;3.85;100.00
82413;BME280;72056;51.980;15.436;2023-11-19T04:09:55;100487.50;;;3.88;100.00
82413;BME280;72056;51.980;15.436;2023-11-19T04:12:22;100491.56;;;3.68;100.00
82413;BME280;72056;51.980;15.436;2023-11-19T04:14:49;100489.44;;;3.74;100.00
82413;BME280;72056;51.980;15.436;2023-11-19T04:17:15;100486.66;;;3.75;100.00
82413;BME280;72056;51.980;15.436;2023-11-19T04:19:44;100480.16;;;3.78;100.00
82413;BME280;72056;51.980;15.436;2023-11-19T04:22:11;100470.78;;;3.70;100.00
82413;BME280;72056;51.980;15.436;2023-11-19T04:24:39;100460.66;;;3.61;100.00
82413;BME280;72056;51.980;15.436;2023-11-19T04:27:11;100447.09;;;3.76;100.00
82413;BME280;72056;51.980;15.436;2023-11-19T04:29:38;100431.91;;;3.62;100.00
82413;BME280;72056;51.980;15.436;2023-11-19T04:32:06;100442.03;;;3.71;100.00
82413;BME280;72056;51.980;15.436;2023-11-19T04:34:39;100447.41;;;3.71;100.00
82413;BME280;72056;51.980;15.436;2023-11-19T04:37:06;100451.28;;;3.67;100.00
82413;BME280;72056;51.980;15.436;2023-11-19T04:39:34;100445.91;;;3.67;100.00
82413;BME280;72056;51.980;15.436;2023-11-19T04:42:03;100435.34;;;3.64;100.00
82413;BME280;72056;51.980;15.436;2023-11-19T04:44:32;100431.78;;;3.63;100.00
82413;BME280;72056;51.980;15.436;2023-11-19T04:47:00;100417.25;;;3.53;100.00
82413;BME280;72056;51.980;15.436;2023-11-19T04:49:26;100408.00;;;3.57;100.00
82413;BME280;72056;51.980;15.436;2023-11-19T04:51:52;100396.34;;;3.44;100.00
82413;BME280;72056;51.980;15.436;2023-11-19T04:54:20;100393.44;;;3.47;100.00
82413;BME280;72056;51.980;15.436;2023-11-19T04:56:47;100378.19;;;3.60;100.00
82413;BME280;72056;51.980;15.436;2023-11-19T04:59:14;100387.44;;;3.56;100.00
82413;BME280;72056;51.980;15.436;2023-11-19T05:01:40;100383.03;;;3.55;100.00
82413;BME280;72056;51.980;15.436;2023-11-19T05:04:08;100371.63;;;3.64;100.00
82413;BME280;72056;51.980;15.436;2023-11-19T05:06:34;100374.63;;;3.60;100.00
82413;BME280;72056;51.980;15.436;2023-11-19T05:09:02;100356.75;;;3.72;100.00
82413;BME280;72056;51.980;15.436;2023-11-19T05:11:34;100357.84;;;3.69;100.00
82413;BME280;72056;51.980;15.436;2023-11-19T05:14:03;100356.22;;;3.66;100.00
82413;BME280;72056;51.980;15.436;2023-11-19T05:16:30;100348.91;;;3.68;100.00
82413;BME280;72056;51.980;15.436;2023-11-19T05:18:58;100340.50;;;3.73;100.00
82413;BME280;72056;51.980;15.436;2023-11-19T05:21:29;100323.06;;;3.66;100.00
82413;BME280;72056;51.980;15.436;2023-11-19T05:24:01;100318.53;;;3.54;100.00
82413;BME280;72056;51.980;15.436;2023-11-19T05:26:38;100292.41;;;3.56;100.00
82413;BME280;72056;51.980;15.436;2023-11-19T05:29:04;100289.56;;;3.70;100.00
82413;BME280;72056;51.980;15.436;2023-11-19T05:31:31;100303.16;;;3.68;100.00
82413;BME280;72056;51.980;15.436;2023-11-19T05:33:58;100280.97;;;3.65;100.00
82413;BME280;72056;51.980;15.436;2023-11-19T05:36:24;100277.84;;;3.58;100.00
82413;BME280;72056;51.980;15.436;2023-11-19T05:38:52;100260.84;;;3.58;100.00
82413;BME280;72056;51.980;15.436;2023-11-19T05:41:23;100266.22;;;3.70;100.00
82413;BME280;72056;51.980;15.436;2023-11-19T05:43:51;100246.84;;;3.65;100.00
82413;BME280;72056;51.980;15.436;2023-11-19T05:46:18;100252.66;;;3.72;100.00
82413;BME280;72056;51.980;15.436;2023-11-19T05:48:45;100260.28;;;3.78;100.00
82413;BME280;72056;51.980;15.436;2023-11-19T05:51:13;100258.97;;;3.84;100.00
82413;BME280;72056;51.980;15.436;2023-11-19T05:53:41;100261.16;;;3.79;100.00
82413;BME280;72056;51.980;15.436;2023-11-19T05:56:09;100263.94;;;3.64;100.00
82413;BME280;72056;51.980;15.436;2023-11-19T05:58:36;100257.84;;;3.62;100.00
82413;BME280;72056;51.980;15.436;2023-11-19T06:01:06;100248.03;;;3.61;100.00
82413;BME280;72056;51.980;15.436;2023-11-19T06:03:36;100245.34;;;3.61;100.00
82413;BME280;72056;51.980;15.436;2023-11-19T06:06:05;100244.81;;;3.56;100.00
82413;BME280;72056;51.980;15.436;2023-11-19T06:08:33;100248.13;;;3.60;100.00
82413;BME280;72056;51.980;15.436;2023-11-19T06:11:00;100235.97;;;3.54;100.00
82413;BME280;72056;51.980;15.436;2023-11-19T06:13:27;100242.84;;;3.71;100.00
82413;BME280;72056;51.980;15.436;2023-11-19T06:15:56;100235.31;;;3.63;100.00
82413;BME280;72056;51.980;15.436;2023-11-19T06:18:27;100238.75;;;3.65;100.00
82413;BME280;72056;51.980;15.436;2023-11-19T06:20:54;100238.00;;;3.63;100.00
82413;BME280;72056;51.980;15.436;2023-11-19T06:23:21;100228.66;;;3.69;100.00
82413;BME280;72056;51.980;15.436;2023-11-19T06:25:49;100225.63;;;3.74;100.00
82413;BME280;72056;51.980;15.436;2023-11-19T06:28:16;100217.56;;;3.74;100.00
82413;BME280;72056;51.980;15.436;2023-11-19T06:30:42;100214.19;;;3.70;100.00
82413;BME280;72056;51.980;15.436;2023-11-19T06:33:14;100204.44;;;3.69;100.00
82413;BME280;72056;51.980;15.436;2023-11-19T06:35:40;100192.03;;;3.66;100.00
82413;BME280;72056;51.980;15.436;2023-11-19T06:38:11;100190.56;;;3.62;100.00
82413;BME280;72056;51.980;15.436;2023-11-19T06:40:37;100183.38;;;3.50;100.00
82413;BME280;72056;51.980;15.436;2023-11-19T06:43:05;100181.09;;;3.57;100.00
82413;BME280;72056;51.980;15.436;2023-11-19T06:45:34;100167.63;;;3.57;100.00
82413;BME280;72056;51.980;15.436;2023-11-19T06:48:01;100152.47;;;3.56;100.00
82413;BME280;72056;51.980;15.436;2023-11-19T06:50:34;100150.94;;;3.52;100.00
82413;BME280;72056;51.980;15.436;2023-11-19T06:53:01;100144.50;;;3.42;100.00
82413;BME280;72056;51.980;15.436;2023-11-19T06:55:32;100146.84;;;3.59;100.00
82413;BME280;72056;51.980;15.436;2023-11-19T06:58:02;100153.19;;;3.58;100.00
82413;BME280;72056;51.980;15.436;2023-11-19T07:00:29;100141.88;;;3.65;100.00
82413;BME280;72056;51.980;15.436;2023-11-19T07:02:56;100145.34;;;3.55;100.00
82413;BME280;72056;51.980;15.436;2023-11-19T07:05:24;100127.28;;;3.57;100.00
82413;BME280;72056;51.980;15.436;2023-11-19T07:07:53;100137.38;;;3.53;100.00
82413;BME280;72056;51.980;15.436;2023-11-19T07:10:20;100139.03;;;3.43;100.00
82413;BME280;72056;51.980;15.436;2023-11-19T07:12:52;100137.41;;;3.41;100.00
82413;BME280;72056;51.980;15.436;2023-11-19T07:15:19;100126.84;;;3.50;100.00
82413;BME280;72056;51.980;15.436;2023-11-19T07:17:46;100127.94;;;3.35;100.00
82413;BME280;72056;51.980;15.436;2023-11-19T07:20:17;100116.81;;;3.52;100.00
82413;BME280;72056;51.980;15.436;2023-11-19T07:22:49;100107.72;;;3.29;100.00
82413;BME280;72056;51.980;15.436;2023-11-19T07:25:16;100111.47;;;3.40;100.00
82413;BME280;72056;51.980;15.436;2023-11-19T07:27:43;100102.50;;;3.52;100.00
82413;BME280;72056;51.980;15.436;2023-11-19T07:30:11;100091.22;;;3.47;100.00
82413;BME280;72056;51.980;15.436;2023-11-19T07:32:38;100095.19;;;3.54;100.00
82413;BME280;72056;51.980;15.436;2023-11-19T07:35:06;100094.91;;;3.69;100.00
82413;BME280;72056;51.980;15.436;2023-11-19T07:37:36;100089.16;;;3.63;100.00
82413;BME280;72056;51.980;15.436;2023-11-19T07:40:07;100088.59;;;3.58;100.00
82413;BME280;72056;51.980;15.436;2023-11-19T07:42:38;100080.47;;;3.70;100.00
82413;BME280;72056;51.980;15.436;2023-11-19T07:45:07;100075.84;;;3.73;100.00
82413;BME280;72056;51.980;15.436;2023-11-19T07:47:35;100073.38;;;3.69;100.00
82413;BME280;72056;51.980;15.436;2023-11-19T07:50:01;100082.00;;;3.75;100.00
82413;BME280;72056;51.980;15.436;2023-11-19T07:52:29;100080.72;;;3.67;100.00
82413;BME280;72056;51.980;15.436;2023-11-19T07:54:55;100082.38;;;3.57;100.00
82413;BME280;72056;51.980;15.436;2023-11-19T07:57:23;100077.31;;;3.53;100.00
82413;BME280;72056;51.980;15.436;2023-11-19T07:59:53;100074.84;;;3.62;100.00
82413;BME280;72056;51.980;15.436;2023-11-19T08:02:19;100064.69;;;3.66;100.00
82413;BME280;72056;51.980;15.436;2023-11-19T08:04:46;100059.19;;;3.67;100.00
82413;BME280;72056;51.980;15.436;2023-11-19T08:07:16;100044.88;;;3.91;100.00
82413;BME280;72056;51.980;15.436;2023-11-19T08:09:45;100038.69;;;3.78;100.00
82413;BME280;72056;51.980;15.436;2023-11-19T08:12:17;100027.81;;;3.55;100.00
82413;BME280;72056;51.980;15.436;2023-11-19T08:14:47;100028.16;;;3.75;100.00
82413;BME280;72056;51.980;15.436;2023-11-19T08:17:16;100013.94;;;3.73;100.00
82413;BME280;72056;51.980;15.436;2023-11-19T08:19:43;100009.53;;;3.72;100.00
82413;BME280;72056;51.980;15.436;2023-11-19T08:22:15;100011.31;;;3.84;100.00
82413;BME280;72056;51.980;15.436;2023-11-19T08:24:42;100000.06;;;3.90;100.00
82413;BME280;72056;51.980;15.436;2023-11-19T08:27:11;100005.41;;;3.79;100.00
82413;BME280;72056;51.980;15.436;2023-11-19T08:29:41;99999.56;;;3.85;100.00
82413;BME280;72056;51.980;15.436;2023-11-19T08:32:13;99978.06;;;3.96;100.00
82413;BME280;72056;51.980;15.436;2023-11-19T08:34:40;99994.81;;;3.99;100.00
82413;BME280;72056;51.980;15.436;2023-11-19T08:37:09;99980.63;;;3.97;100.00
82413;BME280;72056;51.980;15.436;2023-11-19T08:39:36;99970.56;;;3.88;100.00
82413;BME280;72056;51.980;15.436;2023-11-19T08:42:06;99970.47;;;4.01;100.00
82413;BME280;72056;51.980;15.436;2023-11-19T08:44:37;99975.78;;;4.14;100.00
82413;BME280;72056;51.980;15.436;2023-11-19T08:47:08;99962.69;;;4.31;100.00
82413;BME280;72056;51.980;15.436;2023-11-19T08:49:35;99966.25;;;4.21;100.00
82413;BME280;72056;51.980;15.436;2023-11-19T08:52:04;99967.59;;;4.37;100.00
82413;BME280;72056;51.980;15.436;2023-11-19T08:54:33;99956.59;;;4.40;100.00
82413;BME280;72056;51.980;15.436;2023-11-19T08:57:00;99945.94;;;4.39;100.00
82413;BME280;72056;51.980;15.436;2023-11-19T08:59:29;99947.56;;;4.53;100.00
82413;BME280;72056;51.980;15.436;2023-11-19T09:01:57;99946.16;;;4.47;100.00
82413;BME280;72056;51.980;15.436;2023-11-19T09:04:24;99946.81;;;4.50;100.00
82413;BME280;72056;51.980;15.436;2023-11-19T09:06:52;99940.28;;;4.53;100.00
82413;BME280;72056;51.980;15.436;2023-11-19T09:09:18;99946.44;;;4.55;100.00
82413;BME280;72056;51.980;15.436;2023-11-19T09:11:49;99931.97;;;4.45;100.00
82413;BME280;72056;51.980;15.436;2023-11-19T09:14:16;99945.56;;;4.43;100.00
82413;BME280;72056;51.980;15.436;2023-11-19T09:16:45;99944.09;;;4.62;100.00
82413;BME280;72056;51.980;15.436;2023-11-19T09:19:12;99954.25;;;4.47;100.00
82413;BME280;72056;51.980;15.436;2023-11-19T09:21:43;99956.72;;;4.61;100.00
82413;BME280;72056;51.980;15.436;2023-11-19T09:24:09;99929.41;;;4.43;100.00
82413;BME280;72056;51.980;15.436;2023-11-19T09:26:36;99951.34;;;4.50;100.00
82413;BME280;72056;51.980;15.436;2023-11-19T09:29:05;99928.53;;;4.65;100.00
82413;BME280;72056;51.980;15.436;2023-11-19T09:31:40;99941.31;;;4.52;100.00
82413;BME280;72056;51.980;15.436;2023-11-19T09:34:07;99933.31;;;4.73;100.00
82413;BME280;72056;51.980;15.436;2023-11-19T09:36:34;99937.13;;;4.70;100.00
82413;BME280;72056;51.980;15.436;2023-11-19T09:39:00;99929.38;;;4.66;100.00
82413;BME280;72056;51.980;15.436;2023-11-19T09:41:31;99927.44;;;4.68;100.00
82413;BME280;72056;51.980;15.436;2023-11-19T09:44:06;99927.66;;;4.87;100.00
82413;BME280;72056;51.980;15.436;2023-11-19T09:46:33;99911.38;;;4.77;100.00
82413;BME280;72056;51.980;15.436;2023-11-19T09:49:01;99907.31;;;4.83;100.00
82413;BME280;72056;51.980;15.436;2023-11-19T09:51:33;99901.56;;;4.87;100.00
82413;BME280;72056;51.980;15.436;2023-11-19T09:54:00;99894.16;;;5.12;100.00
82413;BME280;72056;51.980;15.436;2023-11-19T09:56:29;99904.59;;;5.05;100.00
82413;BME280;72056;51.980;15.436;2023-11-19T09:58:56;99898.63;;;5.22;100.00
82413;BME280;72056;51.980;15.436;2023-11-19T10:01:24;99897.78;;;5.22;100.00
82413;BME280;72056;51.980;15.436;2023-11-19T10:03:53;99892.94;;;5.37;100.00
82413;BME280;72056;51.980;15.436;2023-11-19T10:06:26;99878.72;;;5.34;100.00
82413;BME280;72056;51.980;15.436;2023-11-19T10:08:53;99891.03;;;5.48;100.00
82413;BME280;72056;51.980;15.436;2023-11-19T10:11:20;99887.13;;;5.52;100.00
82413;BME280;72056;51.980;15.436;2023-11-19T10:13:55;99880.72;;;5.74;100.00
82413;BME280;72056;51.980;15.436;2023-11-19T10:16:29;99869.94;;;5.74;100.00
82413;BME280;72056;51.980;15.436;2023-11-19T10:18:57;99878.81;;;5.65;100.00
82413;BME280;72056;51.980;15.436;2023-11-19T10:21:29;99873.94;;;5.80;100.00
82413;BME280;72056;51.980;15.436;2023-11-19T10:23:58;99880.91;;;5.93;100.00
82413;BME280;72056;51.980;15.436;2023-11-19T10:26:26;99872.56;;;5.85;100.00
82413;BME280;72056;51.980;15.436;2023-11-19T10:28:55;99879.78;;;5.96;100.00
82413;BME280;72056;51.980;15.436;2023-11-19T10:31:23;99858.41;;;5.93;100.00
82413;BME280;72056;51.980;15.436;2023-11-19T10:33:53;99852.50;;;5.99;100.00
82413;BME280;72056;51.980;15.436;2023-11-19T10:36:21;99847.28;;;6.07;100.00
82413;BME280;72056;51.980;15.436;2023-11-19T10:38:56;99847.31;;;6.17;100.00
82413;BME280;72056;51.980;15.436;2023-11-19T10:41:46;99844.06;;;6.23;100.00
82413;BME280;72056;51.980;15.436;2023-11-19T10:44:30;99837.81;;;6.22;100.00
82413;BME280;72056;51.980;15.436;2023-11-19T10:47:00;99837.09;;;6.20;100.00
82413;BME280;72056;51.980;15.436;2023-11-19T10:49:30;99826.00;;;6.23;100.00
82413;BME280;72056;51.980;15.436;2023-11-19T10:51:57;99829.59;;;6.33;100.00
82413;BME280;72056;51.980;15.436;2023-11-19T10:54:25;99828.63;;;6.44;100.00
82413;BME280;72056;51.980;15.436;2023-11-19T10:56:58;99828.38;;;6.47;100.00
82413;BME280;72056;51.980;15.436;2023-11-19T10:59:30;99832.84;;;6.67;100.00
82413;BME280;72056;51.980;15.436;2023-11-19T11:02:03;99830.28;;;6.66;100.00
82413;BME280;72056;51.980;15.436;2023-11-19T11:04:33;99822.44;;;6.63;100.00
82413;BME280;72056;51.980;15.436;2023-11-19T11:07:06;99824.47;;;6.80;100.00
82413;BME280;72056;51.980;15.436;2023-11-19T11:09:33;99833.47;;;7.09;100.00
82413;BME280;72056;51.980;15.436;2023-11-19T11:12:07;99820.53;;;7.13;100.00
82413;BME280;72056;51.980;15.436;2023-11-19T11:14:37;99810.13;;;7.08;100.00
82413;BME280;72056;51.980;15.436;2023-11-19T11:17:05;99812.97;;;7.16;100.00
82413;BME280;72056;51.980;15.436;2023-11-19T11:19:34;99810.41;;;7.24;100.00
82413;BME280;72056;51.980;15.436;2023-11-19T11:22:02;99807.56;;;7.26;100.00
82413;BME280;72056;51.980;15.436;2023-11-19T11:27:29;99788.16;;;7.50;100.00
82413;BME280;72056;51.980;15.436;2023-11-19T11:30:28;99775.78;;;7.94;100.00
82413;BME280;72056;51.980;15.436;2023-11-19T11:35:59;99787.38;;;8.33;100.00
82413;BME280;72056;51.980;15.436;2023-11-19T11:38:36;99782.59;;;8.07;100.00
82413;BME280;72056;51.980;15.436;2023-11-19T11:41:17;99778.59;;;8.02;100.00
82413;BME280;72056;51.980;15.436;2023-11-19T11:43:52;99783.03;;;8.03;100.00
82413;BME280;72056;51.980;15.436;2023-11-19T11:49:05;99781.72;;;8.44;100.00
82413;BME280;72056;51.980;15.436;2023-11-19T12:02:28;99786.75;;;8.29;100.00
82413;BME280;72056;51.980;15.436;2023-11-19T12:05:16;99777.16;;;8.44;100.00
82413;BME280;72056;51.980;15.436;2023-11-19T12:08:05;99773.50;;;8.26;100.00
82413;BME280;72056;51.980;15.436;2023-11-19T12:10:44;99768.09;;;8.53;100.00
82413;BME280;72056;51.980;15.436;2023-11-19T12:13:19;99770.59;;;8.65;100.00
82413;BME280;72056;51.980;15.436;2023-11-19T12:18:27;99767.63;;;9.03;100.00
82413;BME280;72056;51.980;15.436;2023-11-19T12:20:55;99770.19;;;9.22;100.00
82413;BME280;72056;51.980;15.436;2023-11-19T12:23:27;99766.00;;;9.10;100.00
82413;BME280;72056;51.980;15.436;2023-11-19T12:25:59;99753.56;;;9.08;100.00
82413;BME280;72056;51.980;15.436;2023-11-19T12:28:26;99749.47;;;9.04;100.00
82413;BME280;72056;51.980;15.436;2023-11-19T12:31:08;99761.56;;;9.09;100.00
82413;BME280;72056;51.980;15.436;2023-11-19T12:33:35;99753.72;;;9.06;100.00
82413;BME280;72056;51.980;15.436;2023-11-19T12:36:10;99757.28;;;8.89;100.00
82413;BME280;72056;51.980;15.436;2023-11-19T12:38:59;99751.94;;;9.84;100.00
82413;BME280;72056;51.980;15.436;2023-11-19T12:41:52;99743.06;;;9.74;100.00
82413;BME280;72056;51.980;15.436;2023-11-19T12:44:38;99740.75;;;9.61;100.00
82413;BME280;72056;51.980;15.436;2023-11-19T12:48:07;99731.47;;;9.72;100.00
82413;BME280;72056;51.980;15.436;2023-11-19T12:51:41;99736.25;;;9.70;100.00
82413;BME280;72056;51.980;15.436;2023-11-19T12:54:37;99742.91;;;9.75;100.00
82413;BME280;72056;51.980;15.436;2023-11-19T12:57:39;99736.75;;;9.99;100.00
82413;BME280;72056;51.980;15.436;2023-11-19T13:00:22;99740.53;;;10.06;100.00
82413;BME280;72056;51.980;15.436;2023-11-19T13:02:54;99733.69;;;9.94;100.00
82413;BME280;72056;51.980;15.436;2023-11-19T13:05:30;99721.75;;;9.95;100.00
82413;BME280;72056;51.980;15.436;2023-11-19T13:08:20;99725.06;;;10.07;100.00
82413;BME280;72056;51.980;15.436;2023-11-19T13:10:51;99721.25;;;10.17;100.00
82413;BME280;72056;51.980;15.436;2023-11-19T13:13:24;99719.03;;;10.21;100.00
82413;BME280;72056;51.980;15.436;2023-11-19T13:15:52;99717.09;;;10.13;100.00
82413;BME280;72056;51.980;15.436;2023-11-19T13:18:23;99720.84;;;10.12;100.00
82413;BME280;72056;51.980;15.436;2023-11-19T13:20:54;99718.88;;;10.22;100.00